Time;durP1;ratioP1;P1;durP2;ratioP2;P2;SDS_P1;SDS_P2;PMS_P1;PMS_P2;Temp;Humidity;BMP_temperature;BMP_pressure;BME280_temperature;BME280_humidity;BME280_pressure;Samples;Min_cycle;Max_cycle;Signal;HPM_P1;HPM_P2
2021/09/07 00:00:18;;;;;;;9.77;7.10;;;;;;;12.79;95.53;99695.00;5054505;28;20049;-80
2021/09/07 00:02:45;;;;;;;9.77;6.65;;;;;;;12.64;96.25;99688.69;5054299;28;20404;-79
2021/09/07 00:05:14;;;;;;;10.73;6.97;;;;;;;12.48;96.34;99679.63;5054268;28;20049;-79
2021/09/07 00:07:41;;;;;;;8.48;6.03;;;;;;;12.55;97.03;99690.63;5054294;28;20053;-79
2021/09/07 00:10:12;;;;;;;13.80;6.53;;;;;;;12.46;96.60;99687.13;5054384;28;20106;-79
2021/09/07 00:12:40;;;;;;;12.73;6.97;;;;;;;12.41;96.72;99669.66;5054106;28;20412;-79
2021/09/07 00:15:09;;;;;;;8.43;6.03;;;;;;;12.65;95.65;99677.59;5053849;28;20060;-79
2021/09/07 00:17:36;;;;;;;12.55;7.30;;;;;;;12.74;94.38;99673.75;5054096;28;20052;-79
2021/09/07 00:20:06;;;;;;;11.77;7.07;;;;;;;12.83;94.64;99687.31;5054159;28;20562;-79
2021/09/07 00:22:33;;;;;;;9.02;6.75;;;;;;;12.70;95.06;99691.50;5053910;28;20049;-79
2021/09/07 00:25:00;;;;;;;13.48;7.00;;;;;;;12.58;95.37;99668.44;5053950;28;20287;-79
2021/09/07 00:27:28;;;;;;;13.88;6.65;;;;;;;12.61;95.68;99676.25;5054068;28;20045;-79
2021/09/07 00:29:55;;;;;;;7.60;5.30;;;;;;;12.56;95.45;99673.25;5053756;28;20052;-79
2021/09/07 00:32:22;;;;;;;8.45;6.50;;;;;;;12.60;95.32;99680.03;5052968;28;20106;-79
2021/09/07 00:34:49;;;;;;;8.63;6.63;;;;;;;12.55;95.59;99675.13;5052932;28;20053;-79
2021/09/07 00:37:15;;;;;;;10.13;6.40;;;;;;;12.28;96.51;99675.72;5053832;28;20082;-79
2021/09/07 00:39:42;;;;;;;16.52;7.25;;;;;;;12.32;97.14;99671.59;5053784;28;20052;-80
2021/09/07 00:42:09;;;;;;;11.77;6.75;;;;;;;12.28;97.46;99673.00;5053853;28;20058;-79
2021/09/07 00:44:37;;;;;;;9.23;6.45;;;;;;;12.19;97.41;99654.00;5053346;28;20052;-79
2021/09/07 00:47:05;;;;;;;10.40;7.10;;;;;;;12.36;96.20;99660.16;5053490;28;20053;-79
2021/09/07 00:49:33;;;;;;;10.38;7.00;;;;;;;12.32;95.96;99663.44;5053358;28;20048;-79
2021/09/07 00:52:01;;;;;;;8.68;6.32;;;;;;;12.31;97.22;99676.19;5053629;28;20049;-80
2021/09/07 00:54:30;;;;;;;9.93;6.75;;;;;;;12.21;97.31;99681.06;5053372;28;20459;-79
2021/09/07 00:56:58;;;;;;;10.37;6.93;;;;;;;12.03;97.21;99670.47;5053343;28;20052;-79
2021/09/07 00:59:25;;;;;;;9.85;6.18;;;;;;;11.83;97.45;99664.59;5053559;28;20083;-80
2021/09/07 01:01:53;;;;;;;8.88;6.35;;;;;;;11.75;97.89;99657.34;5053172;28;20194;-79
2021/09/07 01:04:20;;;;;;;11.50;6.43;;;;;;;11.86;97.43;99654.22;5053214;28;20045;-79
2021/09/07 01:06:47;;;;;;;12.27;6.65;;;;;;;12.20;96.82;99672.03;5052793;28;20056;-79
2021/09/07 01:09:14;;;;;;;12.75;7.55;;;;;;;11.86;97.36;99648.78;5053066;28;20068;-79
2021/09/07 01:11:41;;;;;;;9.38;6.50;;;;;;;11.92;96.81;99644.44;5053167;28;20106;-79
2021/09/07 01:14:08;;;;;;;9.57;6.72;;;;;;;11.95;96.79;99655.00;5053030;28;20052;-79
2021/09/07 01:16:36;;;;;;;11.65;7.05;;;;;;;11.93;96.70;99645.34;5052800;28;20496;-79
2021/09/07 01:19:05;;;;;;;11.18;6.45;;;;;;;11.94;97.30;99658.78;5052854;28;20053;-79
2021/09/07 01:21:33;;;;;;;14.35;7.55;;;;;;;11.79;97.63;99649.69;5053078;28;20106;-79
2021/09/07 01:24:00;;;;;;;10.18;6.85;;;;;;;11.95;97.57;99671.38;5052248;28;20508;-79
2021/09/07 01:26:28;;;;;;;9.48;6.68;;;;;;;12.00;96.56;99660.78;5052853;28;20049;-79
2021/09/07 01:28:55;;;;;;;10.93;7.03;;;;;;;11.81;96.64;99659.34;5052798;28;20412;-79
2021/09/07 01:31:22;;;;;;;11.50;6.45;;;;;;;11.77;97.43;99659.88;5052657;28;20094;-79
2021/09/07 01:33:49;;;;;;;9.63;7.03;;;;;;;11.76;96.98;99661.78;5052843;28;20045;-79
2021/09/07 01:36:16;;;;;;;11.93;7.45;;;;;;;11.83;97.12;99668.22;5051999;28;20080;-79
2021/09/07 01:38:43;;;;;;;9.43;6.47;;;;;;;11.91;97.14;99664.56;5052435;28;20122;-79
2021/09/07 01:41:10;;;;;;;10.65;6.53;;;;;;;11.99;96.36;99664.53;5052421;28;20126;-79
2021/09/07 01:43:38;;;;;;;10.02;7.15;;;;;;;11.78;97.21;99653.41;5051699;28;20104;-79
2021/09/07 01:46:05;;;;;;;8.55;6.60;;;;;;;11.69;97.20;99653.47;5052268;28;20118;-79
2021/09/07 01:48:32;;;;;;;13.10;7.97;;;;;;;11.93;96.68;99667.97;5052544;28;20499;-79
2021/09/07 01:50:59;;;;;;;10.55;6.82;;;;;;;11.89;97.44;99666.59;5052622;28;20045;-79
2021/09/07 01:53:26;;;;;;;11.35;6.60;;;;;;;11.82;97.19;99650.16;5052392;28;20053;-79
2021/09/07 01:55:53;;;;;;;10.73;6.60;;;;;;;11.67;97.42;99660.13;5052479;28;20144;-79
2021/09/07 01:58:19;;;;;;;13.02;6.68;;;;;;;11.65;97.52;99645.84;5052071;28;20060;-79
2021/09/07 02:00:48;;;;;;;10.30;7.10;;;;;;;11.62;97.16;99657.97;5052466;28;20455;-79
2021/09/07 02:03:14;;;;;;;11.40;7.10;;;;;;;11.60;96.76;99645.53;5052234;28;20045;-79
2021/09/07 02:05:41;;;;;;;10.63;6.45;;;;;;;11.67;97.23;99668.31;5052082;28;20056;-80
2021/09/07 02:08:08;;;;;;;9.75;6.63;;;;;;;11.66;96.82;99664.72;5052110;28;20049;-79
2021/09/07 02:10:35;;;;;;;9.70;7.32;;;;;;;11.57;97.03;99662.25;5052565;28;20049;-78
2021/09/07 02:13:02;;;;;;;13.75;7.80;;;;;;;11.52;97.62;99638.28;5052169;28;20049;-79
2021/09/07 02:15:30;;;;;;;10.75;7.53;;;;;;;11.63;97.63;99659.63;5051359;28;20041;-79
2021/09/07 02:17:58;;;;;;;11.02;6.78;;;;;;;11.45;97.91;99665.34;5052133;28;20132;-79
2021/09/07 02:20:25;;;;;;;12.07;6.70;;;;;;;11.34;98.00;99650.28;5051997;28;20075;-79
2021/09/07 02:22:52;;;;;;;12.50;7.15;;;;;;;11.31;97.70;99653.34;5051905;28;20139;-79
2021/09/07 02:25:18;;;;;;;10.55;7.10;;;;;;;11.21;98.36;99655.44;5051875;28;20102;-79
2021/09/07 02:27:45;;;;;;;11.52;6.53;;;;;;;11.28;98.52;99674.63;5052122;28;20048;-79
2021/09/07 02:30:13;;;;;;;9.55;6.90;;;;;;;11.41;98.13;99676.78;5051988;28;20056;-79
2021/09/07 02:32:40;;;;;;;12.98;7.32;;;;;;;11.36;97.29;99651.97;5051767;28;20412;-79
2021/09/07 02:35:09;;;;;;;10.90;6.55;;;;;;;11.40;97.01;99673.22;5051295;28;20102;-79
2021/09/07 02:37:35;;;;;;;10.47;7.67;;;;;;;11.20;97.47;99667.38;5052074;28;20060;-79
2021/09/07 02:40:04;;;;;;;11.60;7.30;;;;;;;11.30;97.16;99670.69;5051999;28;20068;-79
2021/09/07 02:42:30;;;;;;;9.18;6.28;;;;;;;11.03;97.56;99661.13;5051803;28;20077;-79
2021/09/07 02:44:57;;;;;;;10.35;7.13;;;;;;;10.98;97.64;99655.38;5051565;28;20492;-79
2021/09/07 02:47:24;;;;;;;9.32;6.20;;;;;;;11.07;97.80;99672.50;5051863;28;20106;-79
2021/09/07 02:49:51;;;;;;;9.43;7.00;;;;;;;11.23;97.29;99671.59;5051482;28;20481;-79
2021/09/07 02:52:19;;;;;;;13.00;6.72;;;;;;;11.22;97.23;99669.91;5051817;28;20107;-78
2021/09/07 02:54:46;;;;;;;8.77;6.63;;;;;;;11.23;96.92;99672.44;5054156;28;20075;-79
2021/09/07 02:57:12;;;;;;;8.75;6.35;;;;;;;11.09;96.99;99656.84;5055466;28;20410;-79
2021/09/07 02:59:39;;;;;;;11.95;6.97;;;;;;;11.10;96.50;99650.41;5055435;28;20094;-79
2021/09/07 03:02:06;;;;;;;9.77;6.88;;;;;;;11.12;96.63;99660.06;5055613;28;20053;-79
2021/09/07 03:04:33;;;;;;;10.40;6.80;;;;;;;10.96;97.63;99652.81;5055330;28;20087;-79
2021/09/07 03:06:59;;;;;;;9.88;6.43;;;;;;;10.85;98.22;99661.34;5055176;28;20489;-79
2021/09/07 03:09:27;;;;;;;12.55;6.70;;;;;;;10.63;98.75;99636.59;5056130;28;20099;-79
2021/09/07 03:11:54;;;;;;;9.60;6.70;;;;;;;10.73;98.88;99663.59;5055740;28;20049;-79
2021/09/07 03:14:21;;;;;;;12.68;7.07;;;;;;;10.83;98.79;99657.13;5055139;28;20106;-79
2021/09/07 03:16:48;;;;;;;12.27;8.05;;;;;;;10.96;99.04;99649.25;5055559;28;20057;-79
2021/09/07 03:19:15;;;;;;;13.52;7.78;;;;;;;11.00;98.40;99649.75;5055165;28;20517;-79
2021/09/07 03:21:42;;;;;;;10.85;6.68;;;;;;;10.86;97.61;99618.69;5055340;28;20044;-79
2021/09/07 03:24:09;;;;;;;10.30;7.35;;;;;;;10.85;98.15;99634.16;5054735;28;20045;-79
2021/09/07 03:26:37;;;;;;;12.23;7.03;;;;;;;10.76;98.48;99621.59;5054692;28;20056;-79
2021/09/07 03:29:04;;;;;;;12.25;6.60;;;;;;;10.82;98.29;99631.78;5055072;28;20045;-79
2021/09/07 03:31:31;;;;;;;11.63;6.97;;;;;;;10.87;98.69;99628.53;5055261;28;20107;-79
2021/09/07 03:34:04;;;;;;;10.38;6.45;;;;;;;10.87;98.24;99634.84;5054898;28;20520;-79
2021/09/07 03:36:31;;;;;;;13.18;6.88;;;;;;;10.71;99.08;99613.13;5054566;28;20048;-79
2021/09/07 03:38:58;;;;;;;13.55;7.05;;;;;;;10.76;99.34;99633.34;5055056;28;20053;-79
2021/09/07 03:41:24;;;;;;;12.20;6.47;;;;;;;10.61;99.21;99619.63;5054219;28;20492;-79
2021/09/07 03:43:53;;;;;;;9.75;6.85;;;;;;;10.76;98.46;99614.31;5054881;28;20049;-79
2021/09/07 03:46:19;;;;;;;10.73;7.10;;;;;;;10.82;98.48;99626.34;5054563;28;20451;-79
2021/09/07 03:48:46;;;;;;;9.35;6.22;;;;;;;10.72;99.26;99621.13;5054702;28;20094;-79
2021/09/07 03:51:13;;;;;;;10.13;6.22;;;;;;;10.71;98.73;99615.84;5054654;28;20045;-79
2021/09/07 03:53:40;;;;;;;12.63;7.13;;;;;;;10.56;99.08;99608.41;5054720;28;20127;-79
2021/09/07 03:56:06;;;;;;;8.75;6.40;;;;;;;10.85;98.39;99625.16;5055439;28;20447;-79
2021/09/07 03:58:33;;;;;;;10.77;6.85;;;;;;;10.79;98.94;99632.13;5055304;28;20095;-79
2021/09/07 04:01:01;;;;;;;10.73;6.82;;;;;;;10.78;98.57;99627.75;5055417;28;20056;-79
2021/09/07 04:03:28;;;;;;;11.35;6.63;;;;;;;10.77;98.28;99643.19;5055080;28;20053;-79
2021/09/07 04:05:55;;;;;;;12.13;6.43;;;;;;;10.68;98.75;99632.53;5053992;28;20053;-78
2021/09/07 04:08:21;;;;;;;13.13;7.10;;;;;;;10.57;99.80;99631.88;5054418;28;20049;-79
2021/09/07 04:10:48;;;;;;;12.52;6.50;;;;;;;10.46;100.00;99624.06;5054387;28;20059;-78
2021/09/07 04:13:15;;;;;;;9.82;6.90;;;;;;;10.55;99.78;99620.31;5054386;28;20100;-79
2021/09/07 04:15:42;;;;;;;9.35;5.93;;;;;;;10.66;99.36;99639.97;5053592;28;20048;-78
2021/09/07 04:18:10;;;;;;;11.73;7.10;;;;;;;10.75;99.43;99645.25;5054259;28;20052;-78
2021/09/07 04:20:37;;;;;;;11.25;7.22;;;;;;;10.61;99.59;99626.91;5054246;28;20045;-79
2021/09/07 04:23:04;;;;;;;11.80;7.15;;;;;;;10.47;99.77;99612.16;5054080;28;20111;-78
2021/09/07 04:25:31;;;;;;;13.50;7.05;;;;;;;10.45;100.00;99635.97;5053667;28;20404;-79
2021/09/07 04:27:58;;;;;;;11.73;6.85;;;;;;;10.37;100.00;99622.38;5053843;28;20053;-79
2021/09/07 04:30:24;;;;;;;11.73;7.68;;;;;;;10.50;100.00;99646.31;5054400;28;20057;-79
2021/09/07 04:32:51;;;;;;;12.27;7.30;;;;;;;10.37;100.00;99631.41;5053819;28;20064;-79
2021/09/07 04:35:19;;;;;;;13.35;7.93;;;;;;;10.42;100.00;99639.03;5051867;28;20420;-79
2021/09/07 04:37:46;;;;;;;12.55;7.57;;;;;;;10.53;100.00;99644.09;5053734;28;20049;-78
2021/09/07 04:40:14;;;;;;;11.20;7.53;;;;;;;10.56;100.00;99632.03;5053440;28;20048;-79
2021/09/07 04:42:41;;;;;;;15.10;8.02;;;;;;;10.71;100.00;99643.88;5053510;28;20521;-79
2021/09/07 04:45:08;;;;;;;9.90;7.18;;;;;;;10.69;100.00;99628.75;5053095;28;20451;-79
2021/09/07 04:47:35;;;;;;;13.65;7.40;;;;;;;10.73;100.00;99641.81;5053721;28;20056;-79
2021/09/07 04:50:02;;;;;;;10.32;7.93;;;;;;;10.83;100.00;99649.81;5053699;28;20060;-79
2021/09/07 04:52:30;;;;;;;14.32;8.00;;;;;;;10.60;100.00;99636.94;5053094;28;20148;-79
2021/09/07 04:54:57;;;;;;;11.35;7.68;;;;;;;10.67;100.00;99637.09;5053247;28;20049;-79
2021/09/07 04:57:23;;;;;;;13.45;7.78;;;;;;;10.70;100.00;99638.63;5053316;28;20106;-79
2021/09/07 04:59:50;;;;;;;14.35;8.18;;;;;;;10.63;100.00;99633.88;5053451;28;20049;-78
2021/09/07 05:02:17;;;;;;;13.85;9.52;;;;;;;10.90;100.00;99658.97;5053138;28;20049;-78
2021/09/07 05:04:44;;;;;;;16.80;8.93;;;;;;;10.90;100.00;99650.81;5052932;28;20048;-79
2021/09/07 05:07:11;;;;;;;14.35;9.02;;;;;;;10.88;100.00;99641.94;5053061;28;20053;-79
2021/09/07 05:09:39;;;;;;;15.75;9.93;;;;;;;11.08;100.00;99657.88;5052699;28;20048;-79
2021/09/07 05:12:07;;;;;;;22.85;10.00;;;;;;;11.19;100.00;99662.09;5052950;28;20049;-79
2021/09/07 05:14:34;;;;;;;14.95;8.88;;;;;;;11.23;100.00;99667.00;5053013;28;20060;-79
2021/09/07 05:17:01;;;;;;;14.75;8.70;;;;;;;11.09;100.00;99654.13;5052977;28;20045;-79
2021/09/07 05:19:27;;;;;;;15.98;8.65;;;;;;;11.30;100.00;99667.97;5052897;28;20103;-79
2021/09/07 05:21:54;;;;;;;14.60;9.25;;;;;;;11.24;100.00;99651.50;5053128;28;20052;-79
2021/09/07 05:24:21;;;;;;;15.48;8.90;;;;;;;11.45;100.00;99664.50;5052536;28;20048;-79
2021/09/07 05:26:49;;;;;;;13.10;8.77;;;;;;;11.47;100.00;99671.47;5052562;28;20459;-79
2021/09/07 05:29:16;;;;;;;13.48;8.10;;;;;;;11.42;100.00;99671.16;5052752;28;20052;-79
2021/09/07 05:31:43;;;;;;;15.90;8.88;;;;;;;11.42;100.00;99659.44;5052737;28;20049;-79
2021/09/07 05:34:09;;;;;;;13.98;8.95;;;;;;;11.60;100.00;99679.06;5052322;28;20056;-79
2021/09/07 05:36:36;;;;;;;11.50;8.02;;;;;;;11.52;100.00;99654.59;5051882;28;20110;-79
2021/09/07 05:39:03;;;;;;;13.30;8.73;;;;;;;11.58;100.00;99666.66;5052308;28;20557;-79
2021/09/07 05:41:30;;;;;;;12.02;7.65;;;;;;;11.66;100.00;99674.78;5052432;28;20134;-79
2021/09/07 05:43:58;;;;;;;14.05;8.07;;;;;;;11.76;100.00;99678.13;5052627;28;20397;-79
2021/09/07 05:46:26;;;;;;;18.30;9.30;;;;;;;11.77;100.00;99682.56;5052065;28;20052;-79
2021/09/07 05:48:52;;;;;;;11.40;8.13;;;;;;;11.82;100.00;99671.09;5053431;28;20107;-79
2021/09/07 05:51:19;;;;;;;17.83;7.43;;;;;;;11.74;99.81;99661.09;5053274;28;20049;-79
2021/09/07 05:53:46;;;;;;;13.60;8.80;;;;;;;11.74;100.00;99661.09;5053698;28;20102;-79
2021/09/07 05:56:14;;;;;;;12.98;8.35;;;;;;;11.93;100.00;99673.44;5053329;28;20056;-79
2021/09/07 05:58:41;;;;;;;15.55;8.43;;;;;;;11.85;100.00;99659.84;5052141;28;20056;-79
2021/09/07 06:01:09;;;;;;;13.88;8.75;;;;;;;11.85;100.00;99668.84;5052244;28;20045;-79
2021/09/07 06:03:36;;;;;;;17.00;8.90;;;;;;;11.94;100.00;99677.88;5052032;28;20105;-79
2021/09/07 06:06:03;;;;;;;15.80;8.68;;;;;;;12.00;100.00;99687.19;5052094;28;20122;-79
2021/09/07 06:08:30;;;;;;;13.88;8.50;;;;;;;11.99;100.00;99674.59;5052065;28;20136;-79
2021/09/07 06:10:57;;;;;;;11.80;8.32;;;;;;;11.94;100.00;99658.78;5052371;28;20127;-79
2021/09/07 06:13:24;;;;;;;14.20;9.00;;;;;;;12.06;100.00;99666.53;5051959;28;20049;-79
2021/09/07 06:15:51;;;;;;;13.35;9.13;;;;;;;12.16;99.84;99669.84;5052270;28;20045;-79
2021/09/07 06:18:19;;;;;;;18.88;9.27;;;;;;;12.27;100.00;99672.16;5052250;28;20051;-79
2021/09/07 06:20:46;;;;;;;10.95;7.97;;;;;;;12.49;99.47;99686.75;5051976;28;20459;-79
2021/09/07 06:23:12;;;;;;;16.50;8.57;;;;;;;12.57;98.49;99681.25;5052138;28;20053;-79
2021/09/07 06:25:39;;;;;;;16.50;8.00;;;;;;;12.56;99.46;99679.53;5051299;28;20044;-79
2021/09/07 06:28:06;;;;;;;13.45;8.15;;;;;;;12.56;99.62;99673.25;5051930;28;20136;-79
2021/09/07 06:30:33;;;;;;;12.18;8.75;;;;;;;12.66;99.62;99681.16;5055598;28;20049;-78
2021/09/07 06:33:00;;;;;;;14.75;9.00;;;;;;;12.75;98.66;99674.56;5056004;28;20423;-78
2021/09/07 06:35:28;;;;;;;13.70;9.25;;;;;;;12.91;99.30;99696.22;5054994;28;20045;-78
2021/09/07 06:37:55;;;;;;;11.85;8.27;;;;;;;13.02;98.33;99692.22;5056141;28;20562;-78
2021/09/07 06:40:22;;;;;;;14.55;8.73;;;;;;;13.12;97.92;99694.66;5055982;28;20314;-78
2021/09/07 06:42:50;;;;;;;13.35;8.82;;;;;;;13.18;96.92;99687.59;5055302;28;20057;-79
2021/09/07 06:45:17;;;;;;;11.85;8.23;;;;;;;13.34;95.73;99681.97;5055830;28;20049;-78
2021/09/07 06:47:44;;;;;;;11.82;8.40;;;;;;;13.72;96.61;99698.19;5055807;28;20084;-78
2021/09/07 06:50:11;;;;;;;20.80;8.52;;;;;;;13.88;95.69;99683.44;5055641;28;20436;-78
2021/09/07 06:52:40;;;;;;;11.38;8.23;;;;;;;14.24;93.29;99678.94;5055306;28;20053;-78
2021/09/07 06:55:08;;;;;;;14.38;8.05;;;;;;;14.65;90.96;99673.66;5055490;28;20072;-78
2021/09/07 06:57:34;;;;;;;19.05;8.32;;;;;;;14.85;90.73;99697.56;5055233;28;20513;-79
2021/09/07 07:00:03;;;;;;;12.20;8.27;;;;;;;15.00;90.10;99695.56;5055173;28;20053;-79
2021/09/07 07:02:30;;;;;;;24.73;8.57;;;;;;;15.34;87.88;99690.28;5055512;28;20420;-79
2021/09/07 07:04:57;;;;;;;20.27;8.52;;;;;;;15.33;88.61;99683.97;5054861;28;20045;-80
2021/09/07 07:07:24;;;;;;;18.08;9.30;;;;;;;15.26;89.00;99698.66;5055418;28;20049;-80
2021/09/07 07:09:52;;;;;;;15.90;9.77;;;;;;;14.97;90.07;99687.75;5054947;28;20049;-79
2021/09/07 07:12:19;;;;;;;18.67;9.77;;;;;;;15.04;90.38;99688.66;5055214;28;20053;-80
2021/09/07 07:14:46;;;;;;;15.20;9.25;;;;;;;15.10;90.78;99694.34;5054847;28;20052;-80
2021/09/07 07:17:12;;;;;;;19.23;8.98;;;;;;;15.18;89.25;99686.00;5055141;28;20420;-80
2021/09/07 07:19:39;;;;;;;20.77;10.23;;;;;;;15.50;88.60;99687.19;5054906;28;20413;-80
2021/09/07 07:22:06;;;;;;;19.85;10.57;;;;;;;15.88;89.04;99703.19;5055191;28;20052;-79
2021/09/07 07:24:33;;;;;;;15.38;9.65;;;;;;;15.90;87.20;99708.47;5054374;28;20056;-80
2021/09/07 07:27:02;;;;;;;14.68;9.10;;;;;;;16.21;86.17;99705.16;5035417;28;20049;-80
2021/09/07 07:29:29;;;;;;;17.83;9.30;;;;;;;16.46;85.28;99710.03;5035170;28;20050;-80
2021/09/07 07:31:56;;;;;;;21.98;8.60;;;;;;;16.81;84.85;99702.41;5050301;28;20057;-80
2021/09/07 07:34:23;;;;;;;17.35;8.93;;;;;;;16.97;82.71;99698.41;5054741;28;20045;-80
2021/09/07 07:36:54;;;;;;;16.40;9.82;;;;;;;17.17;83.25;99705.78;5054056;28;20053;-80
2021/09/07 07:39:20;;;;;;;12.85;9.35;;;;;;;17.41;82.29;99700.66;5054999;28;20073;-80
2021/09/07 07:41:47;;;;;;;16.33;9.10;;;;;;;17.62;81.49;99699.50;5053441;28;20053;-80
2021/09/07 07:44:15;;;;;;;17.27;9.18;;;;;;;17.82;80.25;99694.75;5034642;28;20049;-80
2021/09/07 07:46:43;;;;;;;17.95;8.80;;;;;;;17.90;77.41;99688.19;5034634;28;20053;-81
2021/09/07 07:49:09;;;;;;;15.35;8.93;;;;;;;18.36;78.23;99705.47;5050144;28;20447;-80
2021/09/07 07:51:36;;;;;;;16.95;8.70;;;;;;;18.44;77.03;99696.94;5054985;28;20049;-80
2021/09/07 07:54:07;;;;;;;19.77;8.50;;;;;;;18.65;78.15;99703.97;5054673;28;20053;-80
2021/09/07 07:56:34;;;;;;;11.90;8.63;;;;;;;18.84;75.48;99717.78;5054266;28;20051;-80
2021/09/07 07:59:00;;;;;;;14.15;8.25;;;;;;;18.48;76.07;99719.34;5054555;28;20048;-80
2021/09/07 08:01:29;;;;;;;13.55;8.23;;;;;;;18.20;76.60;99715.94;5054557;28;20072;-80
2021/09/07 08:03:56;;;;;;;10.50;7.63;;;;;;;18.06;76.95;99730.84;5054158;28;20080;-80
2021/09/07 08:06:23;;;;;;;12.40;8.15;;;;;;;18.16;76.80;99711.09;5053795;28;20049;-81
2021/09/07 08:08:51;;;;;;;21.02;9.73;;;;;;;18.47;75.72;99718.53;5054317;28;20060;-81
2021/09/07 08:11:17;;;;;;;23.75;8.07;;;;;;;18.59;76.97;99704.84;5054013;28;20049;-81
2021/09/07 08:13:44;;;;;;;12.57;7.53;;;;;;;18.67;76.71;99715.59;5054198;28;20451;-81
2021/09/07 08:16:11;;;;;;;17.90;8.38;;;;;;;18.86;75.29;99732.19;5053867;28;20102;-81
2021/09/07 08:18:39;;;;;;;14.38;9.00;;;;;;;18.99;75.23;99715.56;5054239;28;20449;-81
2021/09/07 08:21:06;;;;;;;13.20;8.15;;;;;;;18.99;73.09;99704.53;5053779;28;20485;-81
2021/09/07 08:23:33;;;;;;;12.27;8.18;;;;;;;19.19;73.56;99711.75;5054087;28;20047;-81
2021/09/07 08:26:00;;;;;;;13.05;7.32;;;;;;;19.24;73.03;99721.03;5053370;28;20064;-81
2021/09/07 08:28:26;;;;;;;12.68;8.48;;;;;;;19.32;73.12;99719.88;5053797;28;20052;-81
2021/09/07 08:30:53;;;;;;;16.92;7.53;;;;;;;19.25;71.86;99700.69;5053985;28;20053;-81
2021/09/07 08:33:20;;;;;;;10.77;7.78;;;;;;;19.42;71.85;99713.81;5053614;28;20044;-81
2021/09/07 08:35:50;;;;;;;13.88;8.25;;;;;;;19.52;70.41;99719.66;5053133;28;20118;-81
2021/09/07 08:38:17;;;;;;;12.63;7.88;;;;;;;19.58;71.83;99696.66;5053506;28;20135;-80
2021/09/07 08:40:45;;;;;;;12.02;7.30;;;;;;;19.79;71.44;99708.31;5053082;28;20057;-81
2021/09/07 08:43:14;;;;;;;19.95;8.48;;;;;;;20.05;69.51;99714.56;5053484;28;20053;-80
2021/09/07 08:45:41;;;;;;;13.07;7.72;;;;;;;20.22;69.01;99721.13;5052831;28;20045;-80
2021/09/07 08:48:08;;;;;;;13.02;7.45;;;;;;;20.01;68.33;99724.38;5052787;28;20103;-80
2021/09/07 08:50:36;;;;;;;13.00;8.60;;;;;;;20.32;69.44;99707.59;5053702;28;20053;-80
2021/09/07 08:53:04;;;;;;;13.13;6.78;;;;;;;20.36;68.22;99719.00;5052795;28;20077;-81
2021/09/07 08:55:31;;;;;;;10.82;7.68;;;;;;;20.49;69.21;99707.75;5053197;28;20059;-80
2021/09/07 08:57:58;;;;;;;13.73;7.68;;;;;;;20.46;70.79;99715.63;5053146;28;20053;-81
2021/09/07 09:00:26;;;;;;;15.45;6.85;;;;;;;20.70;70.78;99722.09;5053630;28;20057;-81
2021/09/07 09:02:53;;;;;;;13.85;7.13;;;;;;;20.48;67.58;99722.63;5053108;28;20080;-80
2021/09/07 09:05:28;;;;;;;20.08;7.05;;;;;;;20.54;69.82;99717.25;5033079;28;20437;-81
2021/09/07 09:07:54;;;;;;;12.98;7.05;;;;;;;20.68;67.66;99727.00;5033229;28;20111;-80
2021/09/07 09:10:24;;;;;;;12.35;7.05;;;;;;;20.65;65.73;99722.78;5049768;28;20508;-80
2021/09/07 09:13:05;;;;;;;15.82;7.80;;;;;;;20.66;67.75;99723.66;5053201;28;20114;-80
2021/09/07 09:15:31;;;;;;;15.60;6.88;;;;;;;20.78;66.03;99716.22;5052886;28;20140;-81
2021/09/07 09:18:05;;;;;;;19.77;7.13;;;;;;;20.98;65.00;99726.09;5053147;28;20107;-81
2021/09/07 09:20:32;;;;;;;15.75;6.55;;;;;;;21.07;65.55;99721.88;5052587;28;20065;-81
2021/09/07 09:23:00;;;;;;;12.15;6.30;;;;;;;21.20;64.97;99729.09;5052918;28;20111;-81
2021/09/07 09:25:43;;;;;;;17.35;7.80;;;;;;;21.33;64.88;99728.00;5052703;28;20485;-81
2021/09/07 09:28:19;;;;;;;11.73;6.85;;;;;;;21.24;63.83;99721.16;5050379;28;20463;-81
2021/09/07 09:30:48;;;;;;;12.80;7.10;;;;;;;21.41;63.71;99719.34;5053084;28;20118;-81
2021/09/07 09:33:16;;;;;;;15.07;7.35;;;;;;;21.33;62.27;99717.78;5052692;28;20412;-81
2021/09/07 09:35:51;;;;;;;13.68;7.05;;;;;;;21.36;61.14;99711.78;5052077;28;20052;-81
2021/09/07 09:38:20;;;;;;;10.15;6.80;;;;;;;21.53;59.88;99717.41;5052392;28;20045;-80
2021/09/07 09:40:58;;;;;;;14.85;7.00;;;;;;;21.68;59.38;99722.44;5053096;28;20049;-81
2021/09/07 09:43:28;;;;;;;18.85;6.60;;;;;;;21.59;56.45;99720.28;5052243;28;20053;-81
2021/09/07 09:45:56;;;;;;;17.52;7.22;;;;;;;21.42;57.75;99709.94;5052279;28;20056;-80
2021/09/07 09:48:29;;;;;;;14.55;7.50;;;;;;;21.69;58.30;99707.53;5052342;28;20048;-81
2021/09/07 09:50:57;;;;;;;18.30;7.55;;;;;;;21.90;57.39;99707.91;5052165;28;20045;-81
2021/09/07 09:53:25;;;;;;;22.20;6.57;;;;;;;21.79;57.27;99700.50;5052183;28;20057;-81
2021/09/07 09:55:55;;;;;;;15.60;6.55;;;;;;;21.97;59.47;99714.16;5051916;28;20060;-81
2021/09/07 09:58:23;;;;;;;20.23;7.40;;;;;;;22.04;56.55;99714.00;5052671;28;20045;-81
2021/09/07 10:00:52;;;;;;;16.75;6.28;;;;;;;22.01;56.03;99700.66;5051964;28;20450;-81
2021/09/07 10:03:19;;;;;;;12.65;6.32;;;;;;;22.27;55.35;99708.34;5051667;28;20044;-81
2021/09/07 10:05:47;;;;;;;21.08;6.65;;;;;;;22.44;57.16;99721.44;5051999;28;20255;-82
2021/09/07 10:08:17;;;;;;;14.88;6.03;;;;;;;22.43;57.03;99708.66;5052477;28;20056;-81
2021/09/07 10:10:52;;;;;;;21.65;5.97;;;;;;;22.41;56.98;99714.44;5052345;28;20059;-81
2021/09/07 10:13:22;;;;;;;10.95;6.32;;;;;;;22.49;53.94;99693.81;5052077;28;20088;-81
2021/09/07 10:15:53;;;;;;;14.48;7.43;;;;;;;22.69;54.38;99698.00;5052041;28;20054;-81
2021/09/07 10:18:39;;;;;;;11.00;6.35;;;;;;;22.87;54.69;99694.13;5052019;28;20493;-81
2021/09/07 10:21:12;;;;;;;12.20;6.35;;;;;;;22.98;54.29;99705.13;5052189;28;20049;-81
2021/09/07 10:23:57;;;;;;;8.55;5.90;;;;;;;22.94;53.15;99694.81;5051408;28;20049;-82
2021/09/07 10:26:53;;;;;;;12.80;6.15;;;;;;;23.22;53.44;99693.06;5041094;28;20115;-82
2021/09/07 10:29:37;;;;;;;11.20;5.68;;;;;;;23.16;53.95;99681.03;5052219;28;20144;-81
2021/09/07 10:32:23;;;;;;;11.18;5.95;;;;;;;23.22;52.22;99685.56;5052046;28;20382;-81
2021/09/07 10:35:04;;;;;;;10.27;5.50;;;;;;;23.27;47.85;99671.75;5051253;28;20055;-82
2021/09/07 10:38:09;;;;;;;11.45;5.35;;;;;;;23.33;47.00;99664.34;5052262;28;20053;-81
2021/09/07 10:40:41;;;;;;;9.02;4.97;;;;;;;23.48;48.58;99678.41;5051580;28;20060;-81
2021/09/07 10:43:08;;;;;;;13.68;5.35;;;;;;;23.42;47.58;99675.84;5052139;28;20085;-81
2021/09/07 10:45:40;;;;;;;10.23;5.55;;;;;;;23.42;45.78;99671.13;5051725;28;20056;-81
2021/09/07 10:48:32;;;;;;;10.48;5.63;;;;;;;23.47;46.59;99667.56;5051439;28;20045;-81
2021/09/07 10:51:04;;;;;;;10.32;6.18;;;;;;;23.65;45.75;99656.16;5051953;28;20536;-82
2021/09/07 10:53:41;;;;;;;;;;;;;;;;;;;;;
2021/09/07 10:56:32;;;;;;;10.05;5.72;;;;;;;23.87;46.90;99662.81;5051594;28;20051;-81
2021/09/07 10:59:00;;;;;;;12.32;5.20;;;;;;;23.76;44.64;99657.13;5051640;28;20085;-81
2021/09/07 11:01:33;;;;;;;8.13;5.38;;;;;;;23.84;44.90;99658.59;5051476;28;20064;-81
2021/09/07 11:04:40;;;;;;;11.88;5.85;;;;;;;24.02;45.44;99649.91;5051771;28;20087;-81
2021/09/07 11:07:49;;;;;;;11.63;5.18;;;;;;;24.17;48.93;99649.22;5051508;28;20129;-82
2021/09/07 11:10:37;;;;;;;9.88;5.82;;;;;;;24.18;46.16;99634.25;5015475;28;20084;-81
2021/09/07 11:13:08;;;;;;;11.13;5.43;;;;;;;24.24;43.55;99643.47;5051557;28;20102;-81
2021/09/07 11:15:38;;;;;;;13.15;5.40;;;;;;;24.42;45.73;99642.25;5053810;28;20110;-81
2021/09/07 11:18:14;;;;;;;11.20;5.70;;;;;;;24.28;44.75;99639.06;5055032;28;20052;-81
2021/09/07 11:20:51;;;;;;;11.32;6.05;;;;;;;24.37;42.72;99642.19;5055430;28;20052;-82
2021/09/07 11:23:25;;;;;;;12.50;5.63;;;;;;;24.31;44.39;99634.91;5055373;28;20053;-82
2021/09/07 11:26:01;;;;;;;9.68;5.38;;;;;;;24.36;44.87;99618.31;5055077;28;20060;-81
2021/09/07 11:28:32;;;;;;;11.32;5.57;;;;;;;24.50;44.50;99627.03;5054625;28;20049;-81
2021/09/07 11:31:07;;;;;;;13.20;5.90;;;;;;;24.51;43.89;99612.88;5035267;28;20053;-81
2021/09/07 11:33:38;;;;;;;9.38;5.72;;;;;;;24.75;43.16;99631.97;5040152;28;20049;-82